CheckWX is a tool to help pilots better visualize weather data.  It is not intended as a substitute for an official pre-flight weather briefing.

08:49:30 UTC

KSCH METAR
Schenectady County Airport
Schenectady, New York, USA
Current

7 hours ago

KSCH 170146Z 29009KT 10SM -RA SCT060 SCT075 BKN110 24/21 A2998 RMK LAST
Observed
Jul-17 @ 01:46 UTC
Wind
  • 290° at 9 KTS
Visibility
10 SM
Flight Rules
VFR
Conditions
Light Rain
Cloud Levels
  • Scattered at 6,000' AGL
  • Scattered at 7,500' AGL
  • Broken at 11,000' AGL
Temperature
24°C / 75°F
Dewpoint
21°C / 70°F
Humidity
83%
Altimeter
29.98" Hg
Pressure
1015.22 hPa
Previous

8 hours ago

KSCH 170059Z 19006KT 10SM SCT060 BKN070 BKN080 29/19 A2995
Observed
Jul-17 @ 00:59 UTC
Wind
  • 190° at 6 KTS
Visibility
10 SM
Flight Rules
VFR
Cloud Levels
  • Scattered at 6,000' AGL
  • Broken at 7,000' AGL
  • Broken at 8,000' AGL
Temperature
29°C / 84°F
Dewpoint
19°C / 66°F
Heat Index
30°C / 86°F
Humidity
55%
Altimeter
29.95" Hg
Pressure
1014.22 hPa
Previous

9 hours ago

KSCH 162350Z 21004KT 10SM CLR 30/19 A2994
Observed
Jul-16 @ 23:50 UTC
Wind
  • 210° at 4 KTS
Visibility
10 SM
Flight Rules
VFR
Cloud Levels
  • Clear skies
Temperature
30°C / 86°F
Dewpoint
19°C / 66°F
Heat Index
31°C / 88°F
Humidity
52%
Altimeter
29.94" Hg
Pressure
1013.92 hPa